aviador You're here:

KPHP Decoded Metar

PHILIP in SD, USA
Report Time2018-07-17 00:55:00
UTC Time2018-07-17 01:59:39
Flight Rules vfr VFR
Wind060° at 19 kt
W.Decomp.*RWY 05: 19.0 kt HW 0.3 kt LCW
RWY 12: 6.2 kt HW 18 kt LCW
W.Rank060° ranks 25
Current wind is above 060° avg. (7.8)
Visibility9999 m
Phenomena:N/A
Clouds:Broken 070 Hf
Broken 100 Hf
Expected CloudBase > 5,200 ft AGL from Temp-Dew spread
Ceiling7,000 ft
Temp30°C (ISA +19)
Dew Point17°C (46% RH)
Heat Index30.5°C
AAT25.6°C
QNH1016 hPa
Density Alt4,580 ft
Elevation2,205 ft
Report Wrong Elevation
Raw Report
KPHP 170055Z AUTO 06019KT 10SM BKN070 BKN100 30/17 A3000 RMK AO2
SLP139 T03000167=

Extra information for KPHP:More info

Metar Taf Metar & Taf Last 4 Metars F.Rules Stats Wind Profile Meteogram Temp Stats Airport Information Weather charts Add Link Nearby VenuesMetar ALERT Operation Metar Decoded Social comments

AIRNAV info for KPHP